Ashford, WA (98304)

4:33 PM PST on February 11, 2016 (GMT -0800)
Alpine Village | | Change Station
CLOSE
Current Station
Personal Weather Station
Location: Ashford, WA
Elevation: 1842 ft
Nearby Weather Stations

Elev 1842 ft 46.76 °N, 121.99 °W | Updated 16 seconds ago

Rain
Rain
49.8 °F
Feels Like 50 °F
N
0.0
Wind Variable Wind from West
Gusts 0.0 mph

Today
High -- | Low -- °F
--% Chance of Precip.
Yesterday
High -- | Low -- °F
Precip. -- in
Pressure 30.10 in
Visibility 7.0 miles
Clouds Mostly Cloudy 5000 ft
Mostly Cloudy 7500 ft
Windchill 50 °F
Dew Point 47 °F
Humidity 89%
Rainfall 0.17 in
Snow Depth Not available.
7:18 AM 5:26 PM
Waxing Crescent, 15% visible
METAR KPLU 120015Z AUTO 00000KT 7SM -DZ BKN050 BKN075 11/11 A3010 RMK AO2
Pressure 30.10 in
Visibility 7.0 miles
Clouds Mostly Cloudy 5000 ft
Mostly Cloudy 7500 ft
Windchill 50 °F
Dew Point 47 °F
Humidity 89%
Rainfall 0.17 in
Snow Depth Not available.
7:18 AM 5:26 PM
Waxing Crescent, 15% visible
METAR KPLU 120015Z AUTO 00000KT 7SM -DZ BKN050 BKN075 11/11 A3010 RMK AO2

10-Day Weather Forecast

Almanac

Astronomy

Feb. 11, 2016 Rise Set
Actual Time
Civil Twilight
Nautical Twilight
Astronomical Twilight
Moon
Length of Visible Light
Length of Day
Tomorrow will be .
, % of the Moon is Illuminated

Today's Extremes

State Highs State Lows

Community

WunderPhotos

Upload Photos

1,892,194 photos uploaded!

WunderBlog® & News

Nearby

Air Quality

  Air Quality AQ Index Pollutant
Not available.

Snow Depth

Station Depth Elevation

Earthquake Activity

City Distance Mag. Time & Date
Minimum magnitude displayed is 2.5.

Coastal Water Temperatures

Place Temperature

Stations

Nearby Weather Stations

Station Location Temp. Windchill Dew Point Humidity Wind Precip. Elev Updated Type
                   

Watches & Warnings

There are currently no watches in effect.